Tucson, AZ (85749)

12:25 PM MST on August 03, 2015 (GMT -0700)
www.cactusjackstravel.com | | Change Station
CLOSE
Current Station
Personal Weather Station
Location: Tucson, AZ
Elevation: 2684 ft
Nearby Weather Stations

Elev 2684 ft 32.27 °N, 110.77 °W | Updated 2 minutes ago

Clear
Clear
100.5 °F
Feels Like 99 °F
N
0.0
Wind Variable Wind from NNW
Gusts 1.0 mph

Today
High -- | Low -- °F
--% Chance of Precip.
Yesterday
High -- | Low -- °F
Precip. -- in
5:39 AM 7:18 PM
Waning Gibbous, 84% visible
Pressure 29.82 in
Visibility 10.0 miles
Clouds Clear
Heat Index 99 °F
Dew Point 56 °F
Humidity 23%
Rainfall 0.00 in
Snow Depth Not available.
UV 7.1 out of 12
Pollen 4.80 out of 12
Air Quality Not available.
Flu Activity Not available.
METAR KDMA 031858Z AUTO 36005KT 10SM CLR 35/12 A2997 RMK AO2 SLP097 T03510121 $

More Conditions Fewer Conditions

Pressure 29.82 in
Visibility 10.0 miles
Clouds Clear
Heat Index 99 °F
Dew Point 56 °F
Humidity 23%
Rainfall 0.00 in
Snow Depth Not available.
UV 7.1 out of 12
Pollen 4.80 out of 12
Air Quality Not available.
Flu Activity Not available.
METAR KDMA 031858Z AUTO 36005KT 10SM CLR 35/12 A2997 RMK AO2 SLP097 T03510121 $

More Conditions Fewer Conditions

10-Day Weather Forecast

×

Almanac

Astronomy

Aug. 03, 2015 Rise Set
Actual Time
Civil Twilight
Nautical Twilight
Astronomical Twilight
Moon
Length of Visible Light
Length of Day
Tomorrow will be .
, % of the Moon is Illuminated

Today's Extremes

State Highs State Lows

Community

WunderPhotos

Upload Photos

1,843,710 photos uploaded!

WunderBlogs® & News

Nearby

Air Quality

  Air Quality AQ Index Pollutant
Not available.

Snow Depth

Station Depth Elevation

Earthquake Activity

City Distance Mag. Time & Date
Minimum magnitude displayed is 2.5.

Coastal Water Temperatures

Place Temperature

Stations

Nearby Weather Stations

Station Location Temp. Windchill Dew Point Humidity Wind Precip. Elev Updated Type